Time;durP1;ratioP1;P1;durP2;ratioP2;P2;SDS_P1;SDS_P2;PMS_P1;PMS_P2;Temp;Humidity;BMP_temperature;BMP_pressure;BME280_temperature;BME280_humidity;BME280_pressure;Samples;Min_cycle;Max_cycle;Signal;HPM_P1;HPM_P2
2024/03/20 00:01:41;;;;;;;9.73;6.70;;;5.40;99.90;;;-141.84;47.96;18862.81;5103994;28;20215;-58
2024/03/20 00:04:10;;;;;;;8.17;6.40;;;5.40;99.90;;;-141.84;47.70;18877.03;5080902;28;20233;-57
2024/03/20 00:06:41;;;;;;;8.37;6.43;;;5.40;99.90;;;-141.84;48.06;18836.41;5084775;28;20216;-57
2024/03/20 00:09:08;;;;;;;9.90;6.50;;;5.40;99.90;;;-141.84;47.78;18842.50;5074920;28;20681;-63
2024/03/20 00:11:40;;;;;;;9.23;7.30;;;5.40;99.90;;;-141.84;48.29;18850.63;5069843;28;20234;-62
2024/03/20 00:14:08;;;;;;;9.20;7.23;;;5.40;99.90;;;-141.84;48.65;18850.63;5061541;28;20209;-63
2024/03/20 00:16:36;;;;;;;9.97;7.50;;;5.40;99.90;;;-141.84;48.88;18872.97;5078807;28;20793;-63
2024/03/20 00:19:03;;;;;;;10.97;7.77;;;5.30;99.90;;;-141.84;49.23;18783.56;5081740;28;20231;-63
2024/03/20 00:21:34;;;;;;;7.97;6.50;;;5.20;99.90;;;-141.84;49.36;18840.47;5087930;28;20864;-63
2024/03/20 00:24:01;;;;;;;8.63;6.73;;;5.20;99.90;;;-141.84;50.16;18791.69;5082182;28;20232;-63
2024/03/20 00:26:29;;;;;;;10.50;7.17;;;5.20;99.90;;;-141.84;50.17;18797.78;5080160;28;20237;-63
2024/03/20 00:28:57;;;;;;;8.83;6.63;;;5.20;99.90;;;-141.84;49.81;18856.72;5078982;28;20223;-65
2024/03/20 00:31:24;;;;;;;10.87;7.10;;;5.20;99.90;;;-141.84;49.83;18805.91;5060375;28;20232;-63
2024/03/20 00:33:52;;;;;;;9.10;6.60;;;5.20;99.90;;;-141.84;49.67;18814.03;5074209;28;20572;-64
2024/03/20 00:36:18;;;;;;;10.63;7.27;;;5.20;99.90;;;-141.84;49.71;18856.72;5078787;28;20734;-64
2024/03/20 00:38:48;;;;;;;9.73;7.07;;;5.20;99.90;;;-141.84;49.29;18828.28;5079222;28;20781;-64
2024/03/20 00:41:19;;;;;;;8.43;6.63;;;5.20;99.90;;;-141.84;49.42;18850.63;5060732;28;20205;-65
2024/03/20 00:43:47;;;;;;;12.20;7.53;;;5.20;99.90;;;-141.84;49.60;18783.56;5055842;28;20200;-63
2024/03/20 00:46:14;;;;;;;9.37;7.57;;;5.20;99.90;;;-141.84;50.00;18828.28;5026441;28;20228;-64
2024/03/20 00:48:41;;;;;;;8.53;7.13;;;5.20;99.90;;;-141.84;50.48;18816.06;5066747;28;20751;-64
2024/03/20 00:51:09;;;;;;;8.47;7.00;;;5.10;99.90;;;-141.84;50.64;18824.22;5072326;28;20228;-64
2024/03/20 00:53:40;;;;;;;9.17;7.53;;;5.10;99.90;;;-141.84;50.09;18805.91;5064675;28;20227;-63
2024/03/20 00:56:09;;;;;;;10.03;7.40;;;5.10;99.90;;;-141.84;49.45;18812.00;5062171;28;20234;-62
2024/03/20 00:58:39;;;;;;;10.13;7.17;;;5.10;99.90;;;-141.84;49.79;18814.03;5078907;28;20196;-57
2024/03/20 01:01:07;;;;;;;10.43;7.53;;;5.10;99.90;;;-141.84;49.81;18816.06;5079871;28;20228;-56
2024/03/20 01:03:34;;;;;;;8.93;7.07;;;5.10;99.90;;;-141.84;49.53;18818.09;5075396;28;20284;-57
2024/03/20 01:06:01;;;;;;;9.77;7.77;;;5.00;99.90;;;-141.84;50.24;18807.94;5076983;28;20223;-56
2024/03/20 01:08:29;;;;;;;10.20;7.60;;;5.10;99.90;;;-141.84;49.30;18830.31;5082229;28;20830;-56
2024/03/20 01:10:59;;;;;;;9.73;8.00;;;5.10;99.90;;;-141.84;49.52;18789.66;5064064;28;20207;-55
2024/03/20 01:13:28;;;;;;;9.27;7.27;;;5.10;99.90;;;-141.84;49.27;18781.53;5064520;28;20252;-58
2024/03/20 01:15:56;;;;;;;9.47;7.57;;;5.10;99.90;;;-141.84;49.85;18789.66;5061183;28;20866;-56
2024/03/20 01:18:24;;;;;;;10.97;7.67;;;5.10;99.90;;;-141.84;49.50;18814.03;5078898;28;20222;-56
2024/03/20 01:20:51;;;;;;;10.60;7.80;;;5.10;99.90;;;-141.84;49.88;18787.63;5082917;28;20227;-55
2024/03/20 01:23:23;;;;;;;11.20;7.97;;;5.10;99.90;;;-141.84;50.74;18777.47;5084458;28;20260;-56
2024/03/20 01:25:51;;;;;;;11.40;8.03;;;5.10;99.90;;;-141.84;50.48;18789.66;5079813;28;20230;-56
2024/03/20 01:28:18;;;;;;;12.87;7.73;;;4.90;99.90;;;-141.84;50.65;18783.56;5080162;28;20617;-54
2024/03/20 01:30:47;;;;;;;11.10;8.17;;;5.10;99.90;;;-141.84;51.25;18781.53;5063176;28;20728;-63
2024/03/20 01:33:14;;;;;;;10.20;7.70;;;5.10;99.90;;;-141.84;52.09;18742.94;5071598;28;20271;-63
2024/03/20 01:35:44;;;;;;;9.87;7.53;;;5.00;99.90;;;-141.84;52.78;18783.56;5040990;28;20238;-63
2024/03/20 01:38:11;;;;;;;9.60;7.37;;;4.90;99.90;;;-141.84;53.11;18753.09;5082886;28;20214;-63
2024/03/20 01:40:40;;;;;;;10.17;7.60;;;4.80;99.90;;;-141.84;53.33;18749.03;5067060;28;20204;-62
2024/03/20 01:43:19;;;;;;;9.73;7.83;;;4.80;99.90;;;-141.84;52.84;18765.28;5075965;28;20222;-63
2024/03/20 01:45:49;;;;;;;10.17;8.00;;;4.80;99.90;;;-141.84;52.65;18803.88;5080541;28;20238;-63
2024/03/20 01:48:18;;;;;;;11.87;8.00;;;4.80;99.90;;;-141.84;52.48;18771.38;5080787;28;20220;-62
2024/03/20 01:50:46;;;;;;;9.70;7.83;;;4.80;99.90;;;-141.84;52.19;18783.56;5078970;28;20233;-56
2024/03/20 01:53:20;;;;;;;10.10;7.67;;;4.90;99.90;;;-141.84;51.59;18757.16;5063120;28;20213;-58
2024/03/20 01:55:47;;;;;;;9.90;8.00;;;4.90;99.90;;;-141.84;52.53;18809.97;5034516;28;20203;-66
2024/03/20 01:58:15;;;;;;;10.30;7.63;;;5.00;99.90;;;-141.84;51.72;18793.72;5079562;28;20225;-63
2024/03/20 02:00:45;;;;;;;11.37;8.00;;;5.10;99.90;;;-141.84;51.80;18787.63;5080896;28;20218;-62
2024/03/20 02:03:19;;;;;;;11.47;7.93;;;5.10;99.90;;;-141.84;52.08;18805.91;5078253;28;20246;-63
2024/03/20 02:05:46;;;;;;;10.33;7.93;;;5.10;99.90;;;-141.84;52.34;18781.53;5063209;28;20219;-55
2024/03/20 02:08:13;;;;;;;9.73;7.87;;;5.30;99.90;;;-141.84;52.63;18785.59;5066002;28;20207;-63
2024/03/20 02:10:40;;;;;;;9.93;7.80;;;5.00;99.90;;;-141.84;53.80;18742.94;5082710;28;20207;-56
2024/03/20 02:13:08;;;;;;;10.20;8.13;;;5.00;99.90;;;-141.84;54.72;18759.19;5080699;28;20589;-57
2024/03/20 02:15:37;;;;;;;12.83;8.43;;;4.90;99.90;;;-141.84;55.49;18736.84;5083069;28;20257;-55
2024/03/20 02:18:05;;;;;;;10.27;7.80;;;4.80;99.90;;;-141.84;56.32;18716.53;5077794;28;20233;-57
2024/03/20 02:20:34;;;;;;;9.47;8.23;;;4.80;99.90;;;-141.84;56.79;18720.59;5066780;28;20633;-56
2024/03/20 02:23:07;;;;;;;10.80;8.17;;;4.70;99.90;;;-141.84;57.35;18716.53;5087869;28;20236;-59
2024/03/20 02:25:34;;;;;;;9.87;7.83;;;4.70;99.90;;;-141.84;57.38;18696.19;5082752;28;20215;-62
2024/03/20 02:28:01;;;;;;;10.97;8.13;;;4.60;99.90;;;-141.84;57.67;18718.56;5089530;28;20292;-63
2024/03/20 02:30:29;;;;;;;9.97;7.80;;;4.60;99.90;;;-141.84;58.05;18728.72;5064586;28;20231;-62
2024/03/20 02:32:59;;;;;;;9.50;7.73;;;4.50;99.90;;;-141.84;58.37;18696.19;5066085;28;20233;-54
2024/03/20 02:35:27;;;;;;;10.30;8.67;;;4.50;99.90;;;-141.84;58.87;18702.28;5062473;28;20255;-57
2024/03/20 02:37:54;;;;;;;10.27;7.53;;;4.50;99.90;;;-141.84;59.24;18728.72;5084146;28;20206;-55
2024/03/20 02:40:26;;;;;;;10.73;8.20;;;4.40;99.90;;;-141.84;58.96;18698.22;5082354;28;20222;-56
2024/03/20 02:42:53;;;;;;;10.93;7.53;;;4.40;99.90;;;-141.84;58.97;18679.94;5067935;28;20277;-56
2024/03/20 02:45:21;;;;;;;11.17;8.03;;;4.40;99.90;;;-141.84;59.10;18706.38;5070350;28;20275;-56
2024/03/20 02:47:48;;;;;;;9.63;7.47;;;4.40;99.90;;;-141.84;59.03;18742.94;5085546;28;20222;-58
2024/03/20 02:50:16;;;;;;;10.30;8.13;;;4.40;99.90;;;-141.84;59.17;18714.50;5082763;28;20195;-57
2024/03/20 02:52:44;;;;;;;9.23;7.80;;;4.40;99.90;;;-141.84;59.20;18692.13;5041748;28;20633;-56
2024/03/20 02:55:11;;;;;;;9.63;8.27;;;4.40;99.90;;;-141.84;59.21;18714.50;5081798;28;20221;-54
2024/03/20 02:57:40;;;;;;;10.47;8.20;;;4.30;99.90;;;-141.84;59.79;18706.38;5068356;28;20220;-56
2024/03/20 03:00:10;;;;;;;11.50;8.47;;;4.30;99.90;;;-141.84;60.38;18675.88;5069172;28;20222;-57
2024/03/20 03:02:41;;;;;;;9.77;7.97;;;4.30;99.90;;;-141.84;59.60;18692.13;5083352;28;20230;-60
2024/03/20 03:05:11;;;;;;;10.73;7.97;;;4.30;99.90;;;-141.84;58.88;18684.00;5082586;28;20194;-56
2024/03/20 03:07:38;;;;;;;9.93;7.77;;;4.30;99.90;;;-141.84;58.96;18675.88;5071698;28;20247;-55
2024/03/20 03:10:08;;;;;;;9.20;7.67;;;4.30;99.90;;;-141.84;58.66;18686.03;5057569;28;20268;-55
2024/03/20 03:12:36;;;;;;;10.60;8.27;;;4.30;99.90;;;-141.84;58.98;18724.66;5067738;28;20222;-55
2024/03/20 03:15:05;;;;;;;10.73;8.40;;;4.30;99.90;;;-141.84;59.68;18686.03;5072533;28;20263;-57
2024/03/20 03:17:32;;;;;;;9.80;7.87;;;4.30;99.90;;;-141.84;60.12;18651.50;5086607;28;20218;-55
2024/03/20 03:19:59;;;;;;;10.00;8.17;;;4.20;99.90;;;-141.84;60.67;18671.81;5064006;28;20210;-54
2024/03/20 03:22:26;;;;;;;11.33;8.80;;;4.20;99.90;;;-141.84;60.84;18649.47;5066378;28;20344;-63
2024/03/20 03:24:54;;;;;;;11.13;8.03;;;4.20;99.90;;;-141.84;61.08;18661.66;5084645;28;20223;-63
2024/03/20 03:27:21;;;;;;;11.93;9.47;;;4.20;99.90;;;-141.84;61.55;18690.09;5081745;28;20223;-63
2024/03/20 03:29:48;;;;;;;11.23;8.93;;;4.20;99.90;;;-141.84;62.04;18663.69;5082577;28;20217;-63
2024/03/20 03:32:18;;;;;;;13.57;9.70;;;4.20;99.90;;;-141.84;62.63;18675.88;5083728;28;20206;-63
2024/03/20 03:34:48;;;;;;;11.53;10.17;;;4.10;99.90;;;-141.84;63.50;18669.78;5057328;28;20196;-64
2024/03/20 03:37:20;;;;;;;12.57;10.67;;;4.10;99.90;;;-141.84;64.26;18673.84;5068006;28;20222;-63
2024/03/20 03:39:48;;;;;;;14.93;10.70;;;4.10;99.90;;;-141.84;64.81;18625.09;5075256;28;20594;-63
2024/03/20 03:42:19;;;;;;;13.40;10.93;;;4.20;99.90;;;-141.84;65.18;18696.19;5081256;28;20241;-62
2024/03/20 03:44:46;;;;;;;13.67;11.13;;;4.20;99.90;;;-141.84;65.65;18675.88;5083900;28;20227;-63
2024/03/20 03:47:16;;;;;;;14.83;11.40;;;4.20;99.90;;;-141.84;66.38;18667.75;5083762;28;20207;-63
2024/03/20 03:49:43;;;;;;;14.97;11.13;;;4.20;99.90;;;-141.84;67.04;18669.78;5071097;28;20207;-62
2024/03/20 03:52:10;;;;;;;13.33;10.87;;;4.20;99.90;;;-141.84;67.58;18667.75;5077880;28;20325;-62
2024/03/20 03:54:37;;;;;;;12.70;10.43;;;4.20;99.90;;;-141.84;67.85;18647.44;5064999;28;20268;-62
2024/03/20 03:57:05;;;;;;;13.40;10.23;;;4.20;99.90;;;-141.84;68.20;18647.44;5070323;28;20229;-62
2024/03/20 03:59:32;;;;;;;13.30;10.10;;;4.20;99.90;;;-141.84;68.25;18669.78;5087082;28;20221;-63
2024/03/20 04:02:00;;;;;;;14.40;10.73;;;4.30;99.90;;;-141.84;68.75;18667.75;5085201;28;20731;-62
2024/03/20 04:04:28;;;;;;;13.80;10.77;;;4.30;99.90;;;-141.84;68.47;18679.94;5090106;28;20252;-62
2024/03/20 04:06:57;;;;;;;12.97;10.17;;;4.40;99.90;;;-141.84;67.93;18665.72;5081756;28;20218;-62
2024/03/20 04:09:25;;;;;;;12.67;10.63;;;4.40;99.90;;;-141.84;68.51;18651.50;5066187;28;20234;-64
2024/03/20 04:11:53;;;;;;;12.50;10.37;;;4.40;99.90;;;-141.84;68.84;18651.50;5069221;28;20688;-64
2024/03/20 04:14:20;;;;;;;12.00;9.47;;;4.40;99.90;;;-141.84;69.65;18651.50;5061784;28;20199;-63
2024/03/20 04:16:47;;;;;;;13.57;10.60;;;4.40;99.90;;;-141.84;70.19;18663.69;5065393;28;20252;-64
2024/03/20 04:19:17;;;;;;;11.80;9.90;;;4.40;99.90;;;-141.84;70.76;18655.56;5074406;28;20226;-63
2024/03/20 04:21:45;;;;;;;14.17;11.30;;;4.30;99.90;;;-141.84;71.33;18651.50;5089432;28;20228;-63
2024/03/20 04:24:13;;;;;;;14.00;10.50;;;4.30;99.90;;;-141.84;71.27;18614.94;5085862;28;20725;-62
2024/03/20 04:26:40;;;;;;;12.27;10.50;;;4.30;99.90;;;-141.84;71.08;18667.75;5079891;28;20749;-63
2024/03/20 04:29:08;;;;;;;11.30;10.10;;;4.30;99.90;;;-141.84;71.36;18667.75;5086889;28;20211;-62
2024/03/20 04:31:37;;;;;;;11.63;10.13;;;4.30;99.90;;;-141.84;71.69;18679.94;5063350;28;20199;-62
2024/03/20 04:34:05;;;;;;;12.60;10.13;;;4.30;99.90;;;-141.84;72.38;18692.13;5064575;28;20224;-52
2024/03/20 04:36:33;;;;;;;14.03;10.87;;;4.20;99.90;;;-141.84;71.67;18692.13;5064718;28;20232;-55
2024/03/20 04:39:06;;;;;;;12.30;10.70;;;4.30;99.90;;;-141.84;71.06;18667.75;5061778;28;20237;-55
2024/03/20 04:41:34;;;;;;;12.63;10.17;;;4.30;99.90;;;-141.84;71.66;18688.06;5059359;28;20233;-56
2024/03/20 04:44:01;;;;;;;12.77;9.87;;;4.30;99.90;;;-141.84;72.52;18692.13;5066731;28;20223;-63
2024/03/20 04:46:28;;;;;;;12.60;10.30;;;4.30;99.90;;;-141.84;72.55;18686.03;5090350;28;20231;-63
2024/03/20 04:48:56;;;;;;;12.60;9.90;;;4.30;99.90;;;-141.84;73.27;18718.56;5063641;28;20229;-63
2024/03/20 04:51:24;;;;;;;12.93;10.77;;;4.30;99.90;;;-141.84;73.59;18742.94;5045582;28;20727;-63
2024/03/20 04:53:51;;;;;;;13.07;10.97;;;4.30;99.90;;;-141.84;73.89;18761.22;5078991;28;20226;-55
2024/03/20 04:56:23;;;;;;;14.53;10.60;;;4.30;99.90;;;-141.84;74.55;18769.34;5081157;28;20196;-56
2024/03/20 04:58:50;;;;;;;13.70;11.10;;;4.20;99.90;;;-141.84;74.86;18797.78;5065685;28;20203;-55
2024/03/20 05:01:21;;;;;;;13.73;10.97;;;4.20;99.90;;;-141.84;75.21;18820.16;5075087;28;20227;-54
2024/03/20 05:03:48;;;;;;;14.63;10.67;;;4.20;99.90;;;-141.84;75.72;18866.88;5039332;28;20290;-58
2024/03/20 05:06:16;;;;;;;13.90;11.00;;;4.20;99.90;;;-141.84;76.00;18883.13;5080639;28;20596;-56
2024/03/20 05:08:44;;;;;;;16.47;10.97;;;4.10;99.90;;;-141.84;76.23;18919.69;5081078;28;20235;-54
2024/03/20 05:11:11;;;;;;;13.13;11.17;;;4.20;99.90;;;-141.84;76.57;18948.16;5080816;28;20226;-55
2024/03/20 05:13:41;;;;;;;15.00;10.90;;;4.20;99.90;;;-141.84;76.97;18992.84;5084203;28;20190;-57
2024/03/20 05:16:09;;;;;;;12.50;10.80;;;4.20;99.90;;;-141.84;76.89;18966.44;5064334;28;20248;-56
2024/03/20 05:18:37;;;;;;;14.80;10.73;;;4.20;99.90;;;-141.84;76.74;18952.22;5071468;28;20222;-57
2024/03/20 05:21:05;;;;;;;13.47;10.83;;;4.20;99.90;;;-141.84;76.91;19011.13;5070157;28;20218;-59
2024/03/20 05:23:31;;;;;;;14.27;10.43;;;4.10;99.90;;;-141.84;76.93;18988.78;5086871;28;20239;-57
2024/03/20 05:26:01;;;;;;;13.90;11.07;;;4.20;99.90;;;-141.84;77.03;18978.63;5086684;28;20216;-57
2024/03/20 05:28:28;;;;;;;15.93;11.73;;;4.20;99.90;;;-141.84;76.68;18954.25;5081148;28;20890;-62
2024/03/20 05:30:57;;;;;;;15.37;10.87;;;4.20;99.90;;;-141.84;76.35;18881.09;5062422;28;20218;-61
2024/03/20 05:33:23;;;;;;;12.90;10.53;;;4.30;99.90;;;-141.84;75.98;18830.31;5063682;28;20238;-56
2024/03/20 05:35:50;;;;;;;12.90;10.80;;;4.30;99.90;;;-141.84;75.78;18807.94;5059220;28;20241;-57
2024/03/20 05:38:19;;;;;;;14.67;11.27;;;4.40;99.90;;;-141.84;75.93;18854.69;5058523;28;20196;-55
2024/03/20 05:40:46;;;;;;;13.97;10.57;;;4.50;99.90;;;-141.84;75.89;18858.75;5085509;28;20659;-60
2024/03/20 05:43:13;;;;;;;12.40;10.43;;;4.50;99.90;;;-141.84;75.40;18809.97;5084344;28;20227;-58
2024/03/20 05:45:41;;;;;;;14.50;11.10;;;4.60;99.90;;;-141.84;75.02;18761.22;5087360;28;20228;-55
2024/03/20 05:48:09;;;;;;;14.37;10.70;;;4.70;99.90;;;-141.84;74.89;18738.88;5080621;28;20275;-55
2024/03/20 05:50:41;;;;;;;15.87;11.50;;;4.70;99.90;;;-141.84;73.13;18653.53;5080795;28;20234;-58
2024/03/20 05:53:08;;;;;;;15.23;11.50;;;4.80;99.90;;;-141.84;72.91;18673.84;5087814;28;20233;-60
2024/03/20 05:55:39;;;;;;;14.30;11.60;;;4.90;99.90;;;-141.84;72.82;18655.56;5084674;28;20211;-57
2024/03/20 05:58:06;;;;;;;13.27;10.27;;;5.00;99.90;;;-141.84;72.34;18655.56;5084554;28;20234;-64
2024/03/20 06:00:33;;;;;;;13.90;10.80;;;5.20;99.90;;;-141.84;71.64;18633.22;5067062;28;20221;-64
2024/03/20 06:03:00;;;;;;;13.37;10.60;;;5.20;99.90;;;-141.84;71.15;18610.88;5060677;28;20753;-64
2024/03/20 06:05:31;;;;;;;14.23;11.00;;;5.40;99.90;;;-141.84;69.75;18574.28;5071001;28;20230;-64
2024/03/20 06:07:57;;;;;;;15.17;10.60;;;5.40;99.90;;;-141.84;68.08;18562.09;5067049;28;20592;-66
2024/03/20 06:10:25;;;;;;;19.03;11.43;;;5.60;99.90;;;-141.84;66.28;18627.13;5069626;28;20228;-64
2024/03/20 06:12:52;;;;;;;20.00;11.60;;;5.70;99.90;;;-141.84;66.31;18619.00;5069258;28;20231;-64
2024/03/20 06:15:21;;;;;;;13.57;11.10;;;5.80;99.90;;;-141.84;64.98;18623.06;5085157;28;20277;-64
2024/03/20 06:17:48;;;;;;;14.10;10.30;;;5.90;99.90;;;-141.84;66.19;18631.19;5079368;28;21040;-64
2024/03/20 06:20:17;;;;;;;15.27;11.20;;;6.00;99.90;;;-141.84;66.49;18602.75;5059588;28;20246;-64
2024/03/20 06:22:48;;;;;;;13.00;10.77;;;5.90;99.90;;;-141.84;66.51;18610.88;5065018;28;20215;-65
2024/03/20 06:25:15;;;;;;;12.27;10.07;;;6.00;99.90;;;-141.84;66.50;18608.84;5065515;28;20231;-63
2024/03/20 06:27:47;;;;;;;15.43;10.63;;;6.00;99.90;;;-141.84;65.86;18621.03;5073719;28;20232;-56
2024/03/20 06:30:15;;;;;;;12.77;11.03;;;6.10;99.90;;;-141.84;63.95;18639.31;5065109;28;20247;-61
2024/03/20 06:32:47;;;;;;;16.93;11.20;;;6.20;99.90;;;-141.84;62.30;18671.81;5046137;28;20227;-59
2024/03/20 06:35:15;;;;;;;12.93;10.50;;;6.40;99.90;;;-141.84;63.66;18645.41;5062015;28;20201;-56
2024/03/20 06:37:45;;;;;;;15.67;10.83;;;6.40;99.90;;;-141.84;63.94;18631.19;5060068;28;20209;-57
2024/03/20 06:40:13;;;;;;;15.70;11.90;;;6.50;99.90;;;-141.84;64.38;18635.25;5079688;28;20234;-59
2024/03/20 06:42:41;;;;;;;15.20;11.40;;;6.50;99.90;;;-141.84;64.09;18635.25;5066984;28;20233;-58
2024/03/20 06:45:08;;;;;;;13.00;10.70;;;6.50;99.90;;;-141.84;64.50;18637.28;5070083;28;20232;-56
2024/03/20 06:47:37;;;;;;;13.17;10.50;;;6.60;99.90;;;-141.84;63.28;18645.41;5081164;28;20215;-60
2024/03/20 06:50:08;;;;;;;12.77;10.40;;;6.70;99.90;;;-141.84;62.65;18651.50;5085212;28;20200;-62
2024/03/20 06:52:38;;;;;;;16.90;11.03;;;6.80;99.90;;;-141.84;62.86;18669.78;5083341;28;20223;-59
2024/03/20 06:55:07;;;;;;;16.27;11.60;;;6.80;99.90;;;-141.84;62.35;18641.34;5086577;28;20239;-59
2024/03/20 06:57:36;;;;;;;13.80;10.43;;;6.90;99.90;;;-141.84;62.02;18655.56;5090137;28;20246;-61
2024/03/20 07:00:07;;;;;;;15.53;10.40;;;7.00;99.90;;;-141.84;60.29;18686.03;5082937;28;20223;-64
2024/03/20 07:02:34;;;;;;;15.47;10.70;;;7.20;99.90;;;-141.84;60.59;18704.31;5083631;28;20232;-60
2024/03/20 07:05:01;;;;;;;14.67;11.47;;;7.40;99.90;;;-141.84;58.90;18706.38;5062850;28;20221;-60
2024/03/20 07:07:29;;;;;;;13.00;10.50;;;7.60;99.90;;;-141.84;58.05;18724.66;5062842;28;20250;-50
2024/03/20 07:09:56;;;;;;;16.03;11.07;;;7.80;99.90;;;-141.84;58.35;18755.13;5078002;28;20687;-50
2024/03/20 07:12:23;;;;;;;14.20;10.63;;;7.80;99.90;;;-141.84;57.81;18747.00;5084502;28;20224;-55
2024/03/20 07:14:51;;;;;;;14.27;10.47;;;7.90;99.90;;;-141.84;57.20;18740.91;5079133;28;20255;-51
2024/03/20 07:17:20;;;;;;;13.07;10.73;;;8.10;99.90;;;-141.84;56.73;18777.47;5061504;28;20201;-53
2024/03/20 07:19:47;;;;;;;13.87;10.33;;;8.30;99.90;;;-141.84;56.16;18830.31;5086082;28;20197;-55
2024/03/20 07:22:17;;;;;;;13.17;10.83;;;8.40;99.90;;;-141.84;55.54;18799.81;5084563;28;20216;-52
2024/03/20 07:24:44;;;;;;;12.03;10.30;;;8.60;99.90;;;-141.84;55.22;18836.41;5085219;28;20634;-54
2024/03/20 07:27:11;;;;;;;12.80;9.97;;;8.80;99.90;;;-141.84;53.82;18864.84;5079824;28;20251;-53
2024/03/20 07:29:37;;;;;;;15.13;10.83;;;8.90;99.90;;;-141.84;54.26;18840.47;5056613;28;20224;-53
2024/03/20 07:32:07;;;;;;;13.37;10.23;;;8.90;99.90;;;-141.84;54.39;18844.53;5065680;28;20220;-57
2024/03/20 07:34:34;;;;;;;15.17;10.10;;;9.10;99.90;;;-141.84;54.45;18830.31;5089042;28;20212;-56
2024/03/20 07:37:01;;;;;;;16.13;11.43;;;9.10;99.90;;;-141.84;54.32;18842.50;5076116;28;20216;-53
2024/03/20 07:39:32;;;;;;;12.33;10.30;;;9.20;99.90;;;-141.84;54.16;18879.06;5084773;28;20232;-54
2024/03/20 07:42:02;;;;;;;13.50;10.63;;;9.30;99.90;;;-141.84;53.75;18854.69;5078869;28;20235;-52
2024/03/20 07:44:29;;;;;;;13.07;10.90;;;9.40;99.90;;;-141.84;53.08;18887.19;5060649;28;20228;-54
2024/03/20 07:46:57;;;;;;;17.30;10.80;;;9.50;99.90;;;-141.84;53.45;18842.50;5084846;28;20209;-50
2024/03/20 07:49:25;;;;;;;13.30;11.07;;;9.50;99.90;;;-141.84;53.44;18826.25;5084552;28;20216;-51
2024/03/20 07:51:53;;;;;;;13.17;10.70;;;9.50;99.90;;;-141.84;53.57;18887.19;5089331;28;20269;-53
2024/03/20 07:54:23;;;;;;;14.43;10.50;;;9.40;99.90;;;-141.84;53.83;18856.72;5093692;28;20211;-49
2024/03/20 07:56:52;;;;;;;14.43;11.47;;;9.40;99.90;;;-141.84;54.20;18846.56;5095880;28;20740;-51
2024/03/20 07:59:21;;;;;;;15.73;11.37;;;9.40;99.90;;;-141.84;53.85;18856.72;5087594;28;20197;-51
2024/03/20 08:01:50;;;;;;;17.50;11.10;;;9.40;99.90;;;-141.84;53.53;18885.16;5087950;28;20230;-56
2024/03/20 08:04:20;;;;;;;13.67;10.87;;;9.50;99.90;;;-141.84;53.21;18879.06;5067181;28;20216;-53
2024/03/20 08:06:51;;;;;;;14.67;11.13;;;9.60;99.90;;;-141.84;52.88;18931.91;5088499;28;20227;-53
2024/03/20 08:09:20;;;;;;;16.70;11.40;;;9.70;99.90;;;-141.84;51.73;18944.09;5068025;28;20233;-50
2024/03/20 08:11:47;;;;;;;14.87;11.07;;;9.80;99.90;;;-141.84;51.76;18935.97;5073133;28;20231;-52
2024/03/20 08:14:15;;;;;;;13.60;10.90;;;10.00;99.90;;;-141.84;51.67;18946.13;5079533;28;20258;-54
2024/03/20 08:16:44;;;;;;;17.37;11.87;;;10.20;99.90;;;-141.84;51.28;18921.75;5065608;28;20197;-55
2024/03/20 08:19:11;;;;;;;15.43;11.23;;;10.30;99.90;;;-141.84;50.58;18976.59;5077895;28;20223;-53
2024/03/20 08:21:41;;;;;;;15.30;11.17;;;10.40;99.90;;;-141.84;50.78;18954.25;5088080;28;20216;-57
2024/03/20 08:24:09;;;;;;;14.70;10.53;;;10.50;99.90;;;-141.84;50.88;18984.72;5092818;28;20277;-53
2024/03/20 08:26:41;;;;;;;17.93;12.17;;;10.70;99.90;;;-141.84;50.17;19025.38;5084412;28;20757;-52
2024/03/20 08:29:08;;;;;;;13.80;11.47;;;10.70;99.90;;;-141.84;49.40;19027.41;5067298;28;20205;-54
2024/03/20 08:31:37;;;;;;;15.70;11.27;;;10.80;99.90;;;-141.84;49.09;19029.44;5064964;28;20197;-51
2024/03/20 08:34:06;;;;;;;16.43;10.77;;;11.00;99.90;;;-141.84;49.03;19035.53;5061382;28;20242;-54
2024/03/20 08:36:33;;;;;;;18.07;11.60;;;11.20;99.90;;;-141.84;47.48;19086.31;5076598;28;20225;-54
2024/03/20 08:39:00;;;;;;;14.17;11.10;;;11.50;99.90;;;-141.84;47.10;19118.84;5069304;28;20220;-59
2024/03/20 08:41:29;;;;;;;17.27;12.17;;;11.70;99.90;;;-141.84;47.26;19126.97;5072661;28;20228;-54
2024/03/20 08:44:00;;;;;;;15.53;10.63;;;11.90;99.90;;;-141.84;46.55;19147.28;5086221;28;20247;-53
2024/03/20 08:46:27;;;;;;;13.70;10.80;;;12.10;99.90;;;-141.84;45.46;19206.22;5064765;28;20727;-53
2024/03/20 08:48:54;;;;;;;15.25;10.60;;;12.40;99.90;;;-141.84;45.12;19183.84;5079885;28;20266;-53
2024/03/20 08:51:22;;;;;;;14.83;10.73;;;12.40;99.90;;;-141.84;45.52;19179.78;5086141;28;20255;-51
2024/03/20 08:53:49;;;;;;;18.37;11.70;;;12.50;99.90;;;-141.84;45.59;19196.06;5093188;28;20218;-57
2024/03/20 08:56:22;;;;;;;14.43;11.20;;;12.50;99.90;;;-141.84;45.27;19198.09;5088077;28;20200;-53
2024/03/20 08:58:50;;;;;;;14.77;11.20;;;12.70;99.90;;;-141.84;45.07;19204.19;5064386;28;20189;-51
2024/03/20 09:01:21;;;;;;;15.57;11.70;;;12.80;99.90;;;-141.84;45.31;19257.00;5079393;28;20708;-50
2024/03/20 09:03:48;;;;;;;16.70;11.40;;;12.80;99.90;;;-141.84;45.52;19220.44;5069220;28;20551;-50
2024/03/20 09:06:16;;;;;;;15.85;10.77;;;12.80;99.90;;;-141.84;45.30;19208.25;5075590;28;20221;-53
2024/03/20 09:08:46;;;;;;;12.77;11.00;;;12.90;99.90;;;-141.84;45.12;19220.44;5036370;28;20228;-51
2024/03/20 09:11:13;;;;;;;14.18;10.35;;;13.00;99.90;;;-141.84;45.14;19297.66;5085291;28;20227;-51
2024/03/20 09:13:40;;;;;;;15.45;10.65;;;13.10;99.90;;;-141.84;44.61;19307.81;5087389;28;20192;-51
2024/03/20 09:16:09;;;;;;;15.30;10.18;;;13.20;99.90;;;-141.84;44.92;19232.63;5086265;28;20212;-50
2024/03/20 09:18:40;;;;;;;11.20;9.82;;;13.10;99.90;;;-141.84;44.33;19269.22;5067303;28;20213;-53
2024/03/20 09:21:07;;;;;;;13.23;9.70;;;13.10;99.90;;;-141.84;44.74;19277.34;5074578;28;20215;-53
2024/03/20 09:23:33;;;;;;;13.30;9.95;;;13.20;99.90;;;-141.84;44.10;19299.69;5094286;28;20219;-53
2024/03/20 09:26:01;;;;;;;15.15;9.77;;;13.10;99.90;;;-141.84;44.53;19273.28;5085741;28;20231;-53
2024/03/20 09:28:28;;;;;;;10.52;8.98;;;13.20;99.90;;;-141.84;44.56;19287.50;5065501;28;20225;-51
2024/03/20 09:31:00;;;;;;;13.77;10.05;;;13.20;99.90;;;-141.84;44.74;19283.44;5067346;28;20221;-53
2024/03/20 09:33:27;;;;;;;13.65;10.95;;;13.30;99.90;;;-141.84;44.93;19252.94;5063997;28;20220;-53
2024/03/20 09:35:58;;;;;;;14.98;10.88;;;13.20;99.90;;;-141.84;45.39;19242.78;5065754;28;20220;-52
2024/03/20 09:38:26;;;;;;;14.45;10.40;;;13.20;99.90;;;-141.84;45.41;19265.13;5068787;28;20224;-51
2024/03/20 09:41:01;;;;;;;13.20;10.73;;;13.20;99.90;;;-141.84;45.21;19259.03;5085800;28;20205;-54
2024/03/20 09:43:27;;;;;;;14.60;10.63;;;13.30;99.90;;;-141.84;46.00;19283.44;5079425;28;20223;-53
2024/03/20 09:46:00;;;;;;;13.05;10.40;;;13.20;99.90;;;-141.84;45.92;19224.50;5064994;28;20232;-52
2024/03/20 09:48:27;;;;;;;13.15;11.20;;;13.20;99.90;;;-141.84;46.00;19269.22;5076246;28;20595;-59
2024/03/20 09:50:59;;;;;;;14.57;11.32;;;13.30;99.90;;;-141.84;46.46;19236.69;5072108;28;20217;-52
2024/03/20 09:53:26;;;;;;;14.60;11.45;;;13.30;99.90;;;-141.84;46.25;19269.22;5055246;28;20738;-53
2024/03/20 09:55:57;;;;;;;13.52;11.50;;;13.40;99.90;;;-141.84;46.48;19240.75;5094515;28;20260;-53
2024/03/20 09:58:26;;;;;;;16.15;11.77;;;13.40;99.90;;;-141.84;46.35;19301.72;5084305;28;20220;-50
2024/03/20 10:00:54;;;;;;;12.88;10.77;;;13.60;99.90;;;-141.84;46.18;19297.66;5084857;28;20289;-50
2024/03/20 10:03:20;;;;;;;17.40;11.43;;;13.70;99.90;;;-141.84;45.92;19301.72;5075101;28;20217;-56
2024/03/20 10:05:50;;;;;;;13.60;11.07;;;13.80;99.90;;;-141.84;45.57;19320.00;5063681;28;20220;-54
2024/03/20 10:08:20;;;;;;;16.27;11.00;;;13.90;99.90;;;-141.84;45.98;19303.75;5074023;28;20201;-53